Time;durP1;ratioP1;P1;durP2;ratioP2;P2;SDS_P1;SDS_P2;PMS_P1;PMS_P2;Temp;Humidity;BMP_temperature;BMP_pressure;BME280_temperature;BME280_humidity;BME280_pressure;Samples;Min_cycle;Max_cycle;Signal;HPM_P1;HPM_P2
2022/11/24 00:01:29;;;;;;;;;;;11.60;69.10;;;;;;5013833;28;19926;-47
2022/11/24 00:03:55;;;;;;;;;;;11.60;69.00;;;;;;5013821;28;20420;-46
2022/11/24 00:06:23;;;;;;;;;;;11.60;69.00;;;;;;4990155;28;20621;-45
2022/11/24 00:08:52;;;;;;;;;;;11.60;69.00;;;;;;5013698;28;19929;-46
2022/11/24 00:11:26;;;;;;;;;;;11.60;69.00;;;;;;5013632;28;19965;-46
2022/11/24 00:13:53;;;;;;;;;;;11.60;69.00;;;;;;5013034;28;19988;-46
2022/11/24 00:16:24;;;;;;;;;;;11.60;69.10;;;;;;5011258;28;19956;-46
2022/11/24 00:18:56;;;;;;;;;;;11.60;69.00;;;;;;5013458;28;19929;-47
2022/11/24 00:21:23;;;;;;;;;;;11.60;69.10;;;;;;5013418;28;19934;-46
2022/11/24 00:23:52;;;;;;;;;;;11.60;69.00;;;;;;5013616;28;20294;-46
2022/11/24 00:26:20;;;;;;;;;;;11.60;69.00;;;;;;5012415;28;19932;-46
2022/11/24 00:28:55;;;;;;;;;;;11.60;68.90;;;;;;5012908;28;19931;-46
2022/11/24 00:31:24;;;;;;;;;;;11.60;68.90;;;;;;5013314;28;19944;-45
2022/11/24 00:33:54;;;;;;;;;;;11.60;69.00;;;;;;5011813;28;19933;-45
2022/11/24 00:36:23;;;;;;;;;;;11.60;69.00;;;;;;5012800;28;20028;-45
2022/11/24 00:38:57;;;;;;;;;;;11.50;69.10;;;;;;5013193;28;19933;-47
2022/11/24 00:41:26;;;;;;;;;;;11.60;69.20;;;;;;5013166;28;20351;-46
2022/11/24 00:43:53;;;;;;;;;;;11.60;69.10;;;;;;5012442;28;19932;-45
2022/11/24 00:46:20;;;;;;;;;;;11.60;69.20;;;;;;5011526;28;19929;-45
2022/11/24 00:48:48;;;;;;;;;;;11.60;69.20;;;;;;5012995;28;19932;-47
2022/11/24 00:51:25;;;;;;;;;;;11.70;69.30;;;;;;5008865;28;19964;-46
2022/11/24 00:53:55;;;;;;;;;;;11.60;69.20;;;;;;5012479;28;20468;-46
2022/11/24 00:56:24;;;;;;;;;;;11.70;69.20;;;;;;5012685;28;19952;-49
2022/11/24 00:58:53;;;;;;;;;;;11.70;69.10;;;;;;5012942;28;20389;-46
2022/11/24 01:01:22;;;;;;;;;;;11.70;69.00;;;;;;5012143;28;19925;-45
2022/11/24 01:03:49;;;;;;;;;;;11.70;68.90;;;;;;5012339;28;20276;-46
2022/11/24 01:06:19;;;;;;;;;;;11.70;68.80;;;;;;5012472;28;20344;-45
2022/11/24 01:08:46;;;;;;;;;;;11.70;68.80;;;;;;5011963;28;20067;-46
2022/11/24 01:12:00;;;;;;;;;;;11.70;68.80;;;;;;5010557;28;19932;-47
2022/11/24 01:14:22;;;;;;;;;;;11.70;68.70;;;;;;5012458;28;20297;-46
2022/11/24 01:16:53;;;;;;;;;;;11.70;68.70;;;;;;5012305;28;19980;-47
2022/11/24 01:19:28;;;;;;;;;;;11.60;68.60;;;;;;5012449;28;19926;-46
2022/11/24 01:21:54;;;;;;;;;;;11.60;68.60;;;;;;5011768;28;20038;-45
2022/11/24 01:24:22;;;;;;;;;;;11.60;68.60;;;;;;5012277;28;19952;-45
2022/11/24 01:26:48;;;;;;;;;;;11.60;68.60;;;;;;4994343;28;19936;-45
2022/11/24 01:29:15;;;;;;;;;;;11.60;68.60;;;;;;5010890;28;20302;-47
2022/11/24 01:31:42;;;;;;;;;;;11.60;68.60;;;;;;5012066;28;20005;-46
2022/11/24 01:34:11;;;;;;;;;;;11.60;68.60;;;;;;5011504;28;19972;-45
2022/11/24 01:36:38;;;;;;;;;;;11.50;68.60;;;;;;5012194;28;19929;-46
2022/11/24 01:39:05;;;;;;;;;;;11.60;68.70;;;;;;5011771;28;19926;-46
2022/11/24 01:41:34;;;;;;;;;;;11.50;68.70;;;;;;5011916;28;19925;-46
2022/11/24 01:44:18;;;;;;;;;;;11.60;68.80;;;;;;5011961;28;19967;-46
2022/11/24 01:46:46;;;;;;;;;;;11.50;68.70;;;;;;5010939;28;19971;-45
2022/11/24 01:49:28;;;;;;;;;;;11.50;68.80;;;;;;5011054;28;19925;-46
2022/11/24 01:52:04;;;;;;;;;;;11.60;68.90;;;;;;5005429;28;19933;-46
2022/11/24 01:54:42;;;;;;;;;;;11.60;68.90;;;;;;5011395;28;20305;-44
2022/11/24 01:57:11;;;;;;;;;;;11.60;68.90;;;;;;5011068;28;20003;-46
2022/11/24 01:59:40;;;;;;;;;;;11.60;69.00;;;;;;5010973;28;19979;-46
2022/11/24 02:02:15;;;;;;;;;;;11.60;69.10;;;;;;5011662;28;19932;-46
2022/11/24 02:04:43;;;;;;;;;;;11.60;69.10;;;;;;5011837;28;19984;-46
2022/11/24 02:07:10;;;;;;;;;;;11.70;69.20;;;;;;5009977;28;19930;-46
2022/11/24 02:09:41;;;;;;;;;;;11.70;69.20;;;;;;5007714;28;20016;-45
2022/11/24 02:12:08;;;;;;;;;;;11.70;69.20;;;;;;5011405;28;20012;-46
2022/11/24 02:14:36;;;;;;;;;;;11.80;69.20;;;;;;5011644;28;20413;-46
2022/11/24 02:17:02;;;;;;;;;;;11.80;69.10;;;;;;5010589;28;19925;-45
2022/11/24 02:19:55;;;;;;;;;;;11.80;69.00;;;;;;5010913;28;19925;-45
2022/11/24 02:22:33;;;;;;;;;;;11.80;69.00;;;;;;5009739;28;20059;-46
2022/11/24 02:25:12;;;;;;;;;;;11.80;68.90;;;;;;5010984;28;19925;-45
2022/11/24 02:27:39;;;;;;;;;;;11.90;68.80;;;;;;5001775;28;19925;-45
2022/11/24 02:30:07;;;;;;;;;;;11.80;68.60;;;;;;5011232;28;19929;-46
2022/11/24 02:32:34;;;;;;;;;;;11.80;68.60;;;;;;5011343;28;19936;-46
2022/11/24 02:35:01;;;;;;;;;;;11.80;68.50;;;;;;5010311;28;19929;-46
2022/11/24 02:37:32;;;;;;;;;;;11.80;68.50;;;;;;5010795;28;19979;-46
2022/11/24 02:40:00;;;;;;;;;;;11.80;68.50;;;;;;5010726;28;19968;-46
2022/11/24 02:42:30;;;;;;;;;;;11.80;68.50;;;;;;5011033;28;20397;-45
2022/11/24 02:45:02;;;;;;;;;;;11.80;68.30;;;;;;5009758;28;20012;-46
2022/11/24 02:47:30;;;;;;;;;;;11.80;68.50;;;;;;5010880;28;19964;-47
2022/11/24 02:49:57;;;;;;;;;;;11.80;68.50;;;;;;5011020;28;20385;-45
2022/11/24 02:52:24;;;;;;;;;;;11.80;68.40;;;;;;5005476;28;19925;-46
2022/11/24 02:54:57;;;;;;;;;;;11.80;68.50;;;;;;5010480;28;19933;-46
2022/11/24 02:57:23;;;;;;;;;;;11.80;68.60;;;;;;5010687;28;19932;-46
2022/11/24 02:59:50;;;;;;;;;;;11.80;68.70;;;;;;5011012;28;19945;-48
2022/11/24 03:02:20;;;;;;;;;;;11.80;68.70;;;;;;5010308;28;19933;-46
2022/11/24 03:04:46;;;;;;;;;;;11.80;68.80;;;;;;5002037;28;19929;-47
2022/11/24 03:07:13;;;;;;;;;;;11.80;68.90;;;;;;5010591;28;19929;-48
2022/11/24 03:09:40;;;;;;;;;;;11.80;68.90;;;;;;5011780;28;19975;-47
2022/11/24 03:12:09;;;;;;;;;;;11.90;69.00;;;;;;5014830;28;20402;-45
2022/11/24 03:14:38;;;;;;;;;;;11.90;69.10;;;;;;5014341;28;20535;-45
2022/11/24 03:17:06;;;;;;;;;;;11.90;69.00;;;;;;5014681;28;19930;-46
2022/11/24 03:19:32;;;;;;;;;;;11.90;69.00;;;;;;5013671;28;19932;-46
2022/11/24 03:21:59;;;;;;;;;;;12.00;69.00;;;;;;5013127;28;19936;-46
2022/11/24 03:24:25;;;;;;;;;;;12.00;68.90;;;;;;5014467;28;19929;-46
2022/11/24 03:26:54;;;;;;;;;;;12.10;68.90;;;;;;5014255;28;19925;-47
2022/11/24 03:29:21;;;;;;;;;;;12.10;68.90;;;;;;5014555;28;20368;-47
2022/11/24 03:31:47;;;;;;;;;;;12.10;68.80;;;;;;5013780;28;19936;-46
2022/11/24 03:34:14;;;;;;;;;;;12.10;68.80;;;;;;5013521;28;19925;-47
2022/11/24 03:36:43;;;;;;;;;;;12.20;68.80;;;;;;5014210;28;20385;-45
2022/11/24 03:39:09;;;;;;;;;;;12.20;68.70;;;;;;5013631;28;19932;-46
2022/11/24 03:41:36;;;;;;;;;;;12.20;68.70;;;;;;5013332;28;19925;-45
2022/11/24 03:44:02;;;;;;;;;;;12.20;68.70;;;;;;5013816;28;19926;-46
2022/11/24 03:46:34;;;;;;;;;;;12.20;68.70;;;;;;5013929;28;19953;-46
2022/11/24 03:49:00;;;;;;;;;;;12.20;68.70;;;;;;4995951;28;19925;-46
2022/11/24 03:51:31;;;;;;;;;;;12.20;68.60;;;;;;5013331;28;20021;-46
2022/11/24 03:53:58;;;;;;;;;;;12.30;68.60;;;;;;4996411;28;19926;-46
2022/11/24 03:56:27;;;;;;;;;;;12.30;68.60;;;;;;5013550;28;19932;-46
2022/11/24 03:58:54;;;;;;;;;;;12.30;68.50;;;;;;5013328;28;19980;-46
2022/11/24 04:01:23;;;;;;;;;;;12.30;68.50;;;;;;5013259;28;19925;-46
2022/11/24 04:03:50;;;;;;;;;;;12.30;68.60;;;;;;5013507;28;19926;-45
2022/11/24 04:06:16;;;;;;;;;;;12.30;68.50;;;;;;5013751;28;19987;-46
2022/11/24 04:08:43;;;;;;;;;;;12.30;68.70;;;;;;5013419;28;19925;-45
2022/11/24 04:12:42;;;;;;;;;;;12.30;68.40;;;;;;5013151;28;20016;-45
2022/11/24 04:13:58;;;;;;;;;;;12.30;68.30;;;;;;5008027;28;19932;-46
2022/11/24 04:16:25;;;;;;;;;;;12.30;68.20;;;;;;5013541;28;19933;-45
2022/11/24 04:18:52;;;;;;;;;;;12.30;68.30;;;;;;5012242;28;19925;-47
2022/11/24 04:21:20;;;;;;;;;;;12.30;68.30;;;;;;5013414;28;19957;-46
2022/11/24 04:23:48;;;;;;;;;;;12.30;68.40;;;;;;5009699;28;19925;-48
2022/11/24 04:26:15;;;;;;;;;;;12.20;68.50;;;;;;5012659;28;19926;-47
2022/11/24 04:28:47;;;;;;;;;;;12.30;68.60;;;;;;5013478;28;20012;-46
2022/11/24 04:31:18;;;;;;;;;;;12.30;68.70;;;;;;5013475;28;20016;-47
2022/11/24 04:33:52;;;;;;;;;;;12.30;68.70;;;;;;5012384;28;19972;-46
2022/11/24 04:36:18;;;;;;;;;;;12.30;68.60;;;;;;5012419;28;19936;-48
2022/11/24 04:38:50;;;;;;;;;;;12.30;68.50;;;;;;5012485;28;19932;-45
2022/11/24 04:41:37;;;;;;;;;;;12.30;68.50;;;;;;5013094;28;19932;-44
2022/11/24 04:44:08;;;;;;;;;;;12.40;68.50;;;;;;5013053;28;19933;-47
2022/11/24 04:46:34;;;;;;;;;;;12.30;68.40;;;;;;5012027;28;19933;-45
2022/11/24 04:49:04;;;;;;;;;;;12.30;68.40;;;;;;5013422;28;19926;-46
2022/11/24 04:51:37;;;;;;;;;;;12.40;68.40;;;;;;5007401;28;19941;-47
2022/11/24 04:54:06;;;;;;;;;;;12.40;68.40;;;;;;5012881;28;19926;-47
2022/11/24 04:56:32;;;;;;;;;;;12.40;68.40;;;;;;5010969;28;19932;-46
2022/11/24 04:59:00;;;;;;;;;;;12.40;68.40;;;;;;5012943;28;19988;-46
2022/11/24 05:01:38;;;;;;;;;;;12.40;68.30;;;;;;5012800;28;20366;-46
2022/11/24 05:04:05;;;;;;;;;;;12.40;68.20;;;;;;5012840;28;19926;-46
2022/11/24 05:06:32;;;;;;;;;;;12.40;68.20;;;;;;5011813;28;19972;-46
2022/11/24 05:08:58;;;;;;;;;;;12.40;68.10;;;;;;5012183;28;20028;-45
2022/11/24 05:11:32;;;;;;;;;;;12.40;68.10;;;;;;5012697;28;19933;-47
2022/11/24 05:13:59;;;;;;;;;;;12.30;68.00;;;;;;5012005;28;19930;-46
2022/11/24 05:16:25;;;;;;;;;;;12.30;68.00;;;;;;5011424;28;20036;-46
2022/11/24 05:18:52;;;;;;;;;;;12.30;68.10;;;;;;5012519;28;19948;-46
2022/11/24 05:21:22;;;;;;;;;;;12.30;68.00;;;;;;5012522;28;19933;-44
2022/11/24 05:23:51;;;;;;;;;;;12.30;68.10;;;;;;5011334;28;19975;-47
2022/11/24 05:26:17;;;;;;;;;;;12.20;68.10;;;;;;5011921;28;20012;-47
2022/11/24 05:28:44;;;;;;;;;;;12.20;68.20;;;;;;5012292;28;20013;-46
2022/11/24 05:31:10;;;;;;;;;;;12.20;68.10;;;;;;5012622;28;19926;-46
2022/11/24 05:33:37;;;;;;;;;;;12.20;68.20;;;;;;5009646;28;19925;-46
2022/11/24 05:36:06;;;;;;;;;;;12.20;68.30;;;;;;5011991;28;20552;-47
2022/11/24 05:38:37;;;;;;;;;;;12.20;68.40;;;;;;5012272;28;19960;-46
2022/11/24 05:41:04;;;;;;;;;;;12.20;68.40;;;;;;5011913;28;19925;-44
2022/11/24 05:43:35;;;;;;;;;;;12.20;68.40;;;;;;5011352;28;19925;-46
2022/11/24 05:46:02;;;;;;;;;;;12.20;68.40;;;;;;5011474;28;19926;-45
2022/11/24 05:48:31;;;;;;;;;;;12.20;68.40;;;;;;5011930;28;19933;-47
2022/11/24 05:50:58;;;;;;;;;;;12.10;68.30;;;;;;5008617;28;20390;-47
2022/11/24 05:53:25;;;;;;;;;;;12.10;68.20;;;;;;5008086;28;19952;-46
2022/11/24 05:55:54;;;;;;;;;;;12.10;68.20;;;;;;5011515;28;20370;-46
2022/11/24 05:58:25;;;;;;;;;;;12.10;68.10;;;;;;5012152;28;19995;-46
2022/11/24 06:00:53;;;;;;;;;;;12.10;68.10;;;;;;5011369;28;19925;-45
2022/11/24 06:03:19;;;;;;;;;;;12.00;68.00;;;;;;5010742;28;19929;-47
2022/11/24 06:05:49;;;;;;;;;;;12.00;67.90;;;;;;5011406;28;19937;-45
2022/11/24 06:08:18;;;;;;;;;;;12.00;68.00;;;;;;5011948;28;20301;-45
2022/11/24 06:10:53;;;;;;;;;;;11.90;67.90;;;;;;5010427;28;19926;-47
2022/11/24 06:13:22;;;;;;;;;;;11.90;68.00;;;;;;5008116;28;20393;-48
2022/11/24 06:15:49;;;;;;;;;;;11.90;68.00;;;;;;5011178;28;20029;-45
2022/11/24 06:18:15;;;;;;;;;;;11.90;68.00;;;;;;5011749;28;19932;-46
2022/11/24 06:20:43;;;;;;;;;;;11.80;67.90;;;;;;5010811;28;19961;-46
2022/11/24 06:23:32;;;;;;;;;;;11.80;67.90;;;;;;5009718;28;20395;-46
2022/11/24 06:26:01;;;;;;;;;;;11.80;67.90;;;;;;5010600;28;20324;-46
2022/11/24 06:28:30;;;;;;;;;;;11.80;67.90;;;;;;5011060;28;19925;-49
2022/11/24 06:31:02;;;;;;;;;;;11.70;67.80;;;;;;4992950;28;19961;-49
2022/11/24 06:33:35;;;;;;;;;;;11.70;67.90;;;;;;5009621;28;19926;-45
2022/11/24 06:36:03;;;;;;;;;;;11.70;67.90;;;;;;5011513;28;20000;-46
2022/11/24 06:38:35;;;;;;;;;;;11.70;67.80;;;;;;5011042;28;20282;-44
2022/11/24 06:41:06;;;;;;;;;;;11.70;67.70;;;;;;4993458;28;19933;-46
2022/11/24 06:43:40;;;;;;;;;;;11.60;67.70;;;;;;5011121;28;19933;-45
2022/11/24 06:46:08;;;;;;;;;;;11.60;67.70;;;;;;5013816;28;20398;-47
2022/11/24 06:48:35;;;;;;;;;;;11.60;67.70;;;;;;4995754;28;19996;-47
2022/11/24 06:51:12;;;;;;;;;;;11.60;67.70;;;;;;5008934;28;20385;-45
2022/11/24 06:53:43;;;;;;;;;;;11.60;67.90;;;;;;5014351;28;19936;-46
2022/11/24 06:56:20;;;;;;;;;;;11.50;67.90;;;;;;5015112;28;20307;-46
2022/11/24 06:58:47;;;;;;;;;;;11.50;68.10;;;;;;5014788;28;20401;-47
2022/11/24 07:01:22;;;;;;;;;;;11.60;68.20;;;;;;5015122;28;19929;-47
2022/11/24 07:03:50;;;;;;;;;;;11.60;68.20;;;;;;5015619;28;20294;-46
2022/11/24 07:06:20;;;;;;;;;;;11.60;68.20;;;;;;5014620;28;19926;-47
2022/11/24 07:08:52;;;;;;;;;;;11.60;68.20;;;;;;5014817;28;19926;-44
2022/11/24 07:11:20;;;;;;;;;;;11.70;68.20;;;;;;5015258;28;20305;-46
2022/11/24 07:13:47;;;;;;;;;;;11.70;68.20;;;;;;5015638;28;19931;-47
2022/11/24 07:16:25;;;;;;;;;;;11.70;68.20;;;;;;5014573;28;19932;-46
2022/11/24 07:18:57;;;;;;;;;;;11.70;68.20;;;;;;5000538;28;19975;-45
2022/11/24 07:21:27;;;;;;;;;;;11.80;68.20;;;;;;5015068;28;19926;-48
2022/11/24 07:23:55;;;;;;;;;;;11.80;68.10;;;;;;5015147;28;19930;-45
2022/11/24 07:26:22;;;;;;;;;;;11.90;68.20;;;;;;5013505;28;20021;-46
2022/11/24 07:28:51;;;;;;;;;;;11.80;68.00;;;;;;5015065;28;19936;-45
2022/11/24 07:31:20;;;;;;;;;;;11.90;68.00;;;;;;4997983;28;20038;-46
2022/11/24 07:33:48;;;;;;;;;;;11.90;68.00;;;;;;5013599;28;20279;-45
2022/11/24 07:36:15;;;;;;;;;;;12.00;68.00;;;;;;5014672;28;19925;-50
2022/11/24 07:38:43;;;;;;;;;;;12.00;68.00;;;;;;5007119;28;20376;-46
2022/11/24 07:41:14;;;;;;;;;;;11.90;67.90;;;;;;5014365;28;20397;-46
2022/11/24 07:43:42;;;;;;;;;;;12.00;67.90;;;;;;4997241;28;19957;-47
2022/11/24 07:46:10;;;;;;;;;;;12.00;67.90;;;;;;5013386;28;19933;-45
2022/11/24 07:48:37;;;;;;;;;;;12.00;67.90;;;;;;5014801;28;19945;-47
2022/11/24 07:51:06;;;;;;;;;;;12.10;67.90;;;;;;5010343;28;19930;-45
2022/11/24 07:53:35;;;;;;;;;;;12.10;67.90;;;;;;5012763;28;19968;-46
2022/11/24 07:56:04;;;;;;;;;;;12.10;68.00;;;;;;5013809;28;20342;-46
2022/11/24 07:58:44;;;;;;;;;;;12.10;68.00;;;;;;5014427;28;19929;-45
2022/11/24 08:01:20;;;;;;;;;;;12.10;67.90;;;;;;5014589;28;19925;-46
2022/11/24 08:03:49;;;;;;;;;;;12.10;67.90;;;;;;5013175;28;19929;-45
2022/11/24 08:06:15;;;;;;;;;;;12.10;67.90;;;;;;5014211;28;20308;-46
2022/11/24 08:08:59;;;;;;;;;;;12.20;67.90;;;;;;5008397;28;19929;-46
2022/11/24 08:11:26;;;;;;;;;;;12.20;67.70;;;;;;5014455;28;19987;-46
2022/11/24 08:13:57;;;;;;;;;;;12.20;67.60;;;;;;5013519;28;19937;-47
2022/11/24 08:16:23;;;;;;;;;;;12.10;67.60;;;;;;5013931;28;19926;-45
2022/11/24 08:18:57;;;;;;;;;;;12.10;67.60;;;;;;5014454;28;19925;-46
2022/11/24 08:21:24;;;;;;;;;;;12.10;67.70;;;;;;5013335;28;20369;-46
2022/11/24 08:23:56;;;;;;;;;;;12.10;67.70;;;;;;5012947;28;20393;-46
2022/11/24 08:26:23;;;;;;;;;;;12.10;67.70;;;;;;5013757;28;20370;-47
2022/11/24 08:28:54;;;;;;;;;;;12.10;67.80;;;;;;5014226;28;20024;-47
2022/11/24 08:31:20;;;;;;;;;;;12.10;67.90;;;;;;5014057;28;20389;-45
2022/11/24 08:33:47;;;;;;;;;;;12.10;67.90;;;;;;5012723;28;20477;-45
2022/11/24 08:36:15;;;;;;;;;;;12.10;67.80;;;;;;5013620;28;19926;-46
2022/11/24 08:38:44;;;;;;;;;;;12.10;67.70;;;;;;5014102;28;19976;-46
2022/11/24 08:41:13;;;;;;;;;;;12.20;67.70;;;;;;5012685;28;19926;-48
2022/11/24 08:43:40;;;;;;;;;;;12.10;67.60;;;;;;5013623;28;20368;-46
2022/11/24 08:46:09;;;;;;;;;;;12.10;67.60;;;;;;5013184;28;20000;-45
2022/11/24 08:48:36;;;;;;;;;;;12.10;67.60;;;;;;5013933;28;19980;-46
2022/11/24 08:51:06;;;;;;;;;;;12.10;67.60;;;;;;5010895;28;20325;-45
2022/11/24 08:53:35;;;;;;;;;;;12.10;67.60;;;;;;5013267;28;20348;-47
2022/11/24 08:56:04;;;;;;;;;;;12.10;67.70;;;;;;5013412;28;19925;-47
2022/11/24 08:58:31;;;;;;;;;;;12.10;67.80;;;;;;5012833;28;19925;-47
2022/11/24 09:01:04;;;;;;;;;;;12.10;67.80;;;;;;5012580;28;20342;-46
2022/11/24 09:03:38;;;;;;;;;;;12.10;67.80;;;;;;5013122;28;19964;-46
2022/11/24 09:06:09;;;;;;;;;;;12.10;67.90;;;;;;5013302;28;19925;-46
2022/11/24 09:08:39;;;;;;;;;;;12.10;68.10;;;;;;5012067;28;20386;-46
2022/11/24 09:11:09;;;;;;;;;;;12.20;68.20;;;;;;5012870;28;19932;-47
2022/11/24 09:13:38;;;;;;;;;;;12.20;68.20;;;;;;5013079;28;19933;-46
2022/11/24 09:16:09;;;;;;;;;;;12.30;68.20;;;;;;5013024;28;20008;-46
2022/11/24 09:18:38;;;;;;;;;;;12.30;68.20;;;;;;5011910;28;20433;-46
2022/11/24 09:21:09;;;;;;;;;;;12.30;68.10;;;;;;5012903;28;19925;-46
2022/11/24 09:23:42;;;;;;;;;;;12.40;68.10;;;;;;5008685;28;19926;-49
2022/11/24 09:26:26;;;;;;;;;;;12.40;67.90;;;;;;5010650;28;20278;-45
2022/11/24 09:28:54;;;;;;;;;;;12.40;67.80;;;;;;5012887;28;19980;-46
2022/11/24 09:31:33;;;;;;;;;;;12.50;67.70;;;;;;5012844;28;20568;-46
2022/11/24 09:34:03;;;;;;;;;;;12.40;67.60;;;;;;5012143;28;20012;-47
2022/11/24 09:36:30;;;;;;;;;;;12.40;67.60;;;;;;5011951;28;19962;-46
2022/11/24 09:39:04;;;;;;;;;;;12.40;67.50;;;;;;5012087;28;19961;-47
2022/11/24 09:41:39;;;;;;;;;;;12.40;67.60;;;;;;5012589;28;19936;-46
2022/11/24 09:44:24;;;;;;;;;;;12.40;67.50;;;;;;5012395;28;19956;-45
2022/11/24 09:46:53;;;;;;;;;;;12.40;67.50;;;;;;5011890;28;20305;-45
2022/11/24 09:49:28;;;;;;;;;;;12.40;67.60;;;;;;5012422;28;19933;-45
2022/11/24 09:52:01;;;;;;;;;;;12.40;67.60;;;;;;5006389;28;19933;-45
2022/11/24 09:54:34;;;;;;;;;;;12.50;67.60;;;;;;5011689;28;21304;-45
2022/11/24 09:57:02;;;;;;;;;;;12.40;67.60;;;;;;5011022;28;19936;-48
2022/11/24 09:59:29;;;;;;;;;;;12.40;67.60;;;;;;5012311;28;19948;-46
2022/11/24 10:01:59;;;;;;;;;;;12.40;67.60;;;;;;5012372;28;19963;-46
2022/11/24 10:04:45;;;;;;;;;;;12.50;67.70;;;;;;5011606;28;20008;-46
2022/11/24 10:07:12;;;;;;;;;;;12.50;67.70;;;;;;5012021;28;20404;-46
2022/11/24 10:09:44;;;;;;;;;;;12.50;67.70;;;;;;4994949;28;19925;-46
2022/11/24 10:12:11;;;;;;;;;;;12.50;68.40;;;;;;4992664;28;20028;-48
2022/11/24 10:14:48;;;;;;;;;;;12.50;67.70;;;;;;5007674;28;20415;-46
2022/11/24 10:17:40;;;;;;;;;;;12.50;67.70;;;;;;5008952;28;19926;-45
2022/11/24 10:20:22;;;;;;;;;;;12.50;67.70;;;;;;5007294;28;20020;-47
2022/11/24 10:22:54;;;;;;;;;;;12.50;67.70;;;;;;5011283;28;19932;-46
2022/11/24 10:25:28;;;;;;;;;;;12.60;67.80;;;;;;5011957;28;19929;-47
2022/11/24 10:28:01;;;;;;;;;;;12.60;67.70;;;;;;5011621;28;19939;-46
2022/11/24 10:30:31;;;;;;;;;;;12.60;67.70;;;;;;5011268;28;19972;-47
2022/11/24 10:33:02;;;;;;;;;;;12.70;67.70;;;;;;5011192;28;19925;-48
2022/11/24 10:35:39;;;;;;;;;;;12.70;67.70;;;;;;5010769;28;20360;-46
2022/11/24 10:38:20;;;;;;;;;;;12.70;67.70;;;;;;5012005;28;20393;-46
2022/11/24 10:40:51;;;;;;;;;;;12.80;67.70;;;;;;5011816;28;19926;-46
2022/11/24 10:43:30;;;;;;;;;;;12.80;67.60;;;;;;5011012;28;19934;-47
2022/11/24 10:46:08;;;;;;;;;;;12.80;67.60;;;;;;5011423;28;20356;-46
2022/11/24 10:48:44;;;;;;;;;;;12.80;67.60;;;;;;5012001;28;20382;-46
2022/11/24 10:51:29;;;;;;;;;;;12.90;67.60;;;;;;5010859;28;19936;-45
2022/11/24 10:54:01;;;;;;;;;;;12.90;67.60;;;;;;5009875;28;19932;-46
2022/11/24 10:56:39;;;;;;;;;;;12.90;67.50;;;;;;5011123;28;19972;-45
2022/11/24 10:59:24;;;;;;;;;;;12.90;67.50;;;;;;5011891;28;19931;-45
2022/11/24 11:01:51;;;;;;;;;;;13.00;67.50;;;;;;5011110;28;19972;-45
2022/11/24 11:04:23;;;;;;;;;;;12.90;67.50;;;;;;5011370;28;19925;-47
2022/11/24 11:07:05;;;;;;;;;;;13.00;67.50;;;;;;5011379;28;20032;-46
2022/11/24 11:09:32;;;;;;;;;;;13.10;67.50;;;;;;5010939;28;19926;-45
2022/11/24 11:12:09;;;;;;;;;;;13.10;67.50;;;;;;5010900;28;20458;-46
2022/11/24 11:14:56;;;;;;;;;;;13.20;67.50;;;;;;5011628;28;19926;-47
2022/11/24 11:17:33;;;;;;;;;;;13.20;67.40;;;;;;5011121;28;19932;-46
2022/11/24 11:20:21;;;;;;;;;;;13.20;67.50;;;;;;5010852;28;20009;-46
2022/11/24 11:22:48;;;;;;;;;;;13.20;67.40;;;;;;5007114;28;19926;-45
2022/11/24 11:25:20;;;;;;;;;;;13.30;67.40;;;;;;5011609;28;19925;-46
2022/11/24 11:27:47;;;;;;;;;;;13.30;67.30;;;;;;5010334;28;20298;-46
2022/11/24 11:30:16;;;;;;;;;;;13.30;67.30;;;;;;5010645;28;19926;-46
2022/11/24 11:33:22;;;;;;;;;;;13.40;67.30;;;;;;5014209;28;19925;-48
2022/11/24 11:36:12;;;;;;;;;;;13.40;67.30;;;;;;4995265;28;20360;-46
2022/11/24 11:38:41;;;;;;;;;;;13.50;67.30;;;;;;5008879;28;19933;-46
2022/11/24 11:41:15;;;;;;;;;;;13.50;67.20;;;;;;5013440;28;19926;-46
2022/11/24 11:43:44;;;;;;;;;;;13.50;67.20;;;;;;5014923;28;20417;-46
2022/11/24 11:46:17;;;;;;;;;;;13.50;67.00;;;;;;5013757;28;20009;-47
2022/11/24 11:48:45;;;;;;;;;;;13.60;67.10;;;;;;5010782;28;19932;-46
2022/11/24 11:51:12;;;;;;;;;;;13.60;67.00;;;;;;5009432;28;20452;-46
2022/11/24 11:54:02;;;;;;;;;;;13.60;67.00;;;;;;5007252;28;19941;-46
2022/11/24 11:56:43;;;;;;;;;;;13.60;67.00;;;;;;5013539;28;19984;-47
2022/11/24 11:59:12;;;;;;;;;;;13.70;67.00;;;;;;5014685;28;20381;-47
2022/11/24 12:02:00;;;;;;;;;;;13.70;67.00;;;;;;5014636;28;19929;-47
2022/11/24 12:04:36;;;;;;;;;;;13.70;66.70;;;;;;5014892;28;20591;-46
2022/11/24 12:07:21;;;;;;;;;;;13.70;66.80;;;;;;5012775;28;19933;-46
2022/11/24 12:10:02;;;;;;;;;;;13.70;66.80;;;;;;5011898;28;20344;-46
2022/11/24 12:12:46;;;;;;;;;;;13.80;66.80;;;;;;5014246;28;19926;-46
2022/11/24 12:15:32;;;;;;;;;;;13.80;66.70;;;;;;5013840;28;19925;-46
2022/11/24 12:18:08;;;;;;;;;;;13.80;66.70;;;;;;5013250;28;20373;-47
2022/11/24 12:21:13;;;;;;;;;;;13.80;66.60;;;;;;5014173;28;19925;-46
2022/11/24 12:23:40;;;;;;;;;;;13.90;66.70;;;;;;5013966;28;19929;-46
2022/11/24 12:26:14;;;;;;;;;;;13.90;66.60;;;;;;5012751;28;20024;-46
2022/11/24 12:29:04;;;;;;;;;;;14.00;66.60;;;;;;5014011;28;20401;-47
2022/11/24 12:31:39;;;;;;;;;;;14.00;66.60;;;;;;5014095;28;20408;-49
2022/11/24 12:34:09;;;;;;;;;;;14.00;66.50;;;;;;5012009;28;19980;-46
2022/11/24 12:36:48;;;;;;;;;;;14.00;66.50;;;;;;5013093;28;19925;-45
2022/11/24 12:39:26;;;;;;;;;;;14.00;66.50;;;;;;5013842;28;20362;-49
2022/11/24 12:42:18;;;;;;;;;;;14.10;66.50;;;;;;5006475;28;20381;-46
2022/11/24 12:44:49;;;;;;;;;;;14.10;66.50;;;;;;5013003;28;19925;-46
2022/11/24 12:47:33;;;;;;;;;;;14.10;66.30;;;;;;5013397;28;19925;-47
2022/11/24 12:50:16;;;;;;;;;;;14.20;66.50;;;;;;4991142;28;19937;-47
2022/11/24 12:52:47;;;;;;;;;;;14.20;66.40;;;;;;5006637;28;19925;-48
2022/11/24 12:55:18;;;;;;;;;;;14.20;66.40;;;;;;5009469;28;19926;-46
2022/11/24 12:57:53;;;;;;;;;;;14.30;66.40;;;;;;5005431;28;19925;-46
2022/11/24 13:00:28;;;;;;;;;;;14.30;66.40;;;;;;5012915;28;19929;-47
2022/11/24 13:03:13;;;;;;;;;;;14.30;66.30;;;;;;5012381;28;19925;-48
2022/11/24 13:05:42;;;;;;;;;;;14.40;66.30;;;;;;5012512;28;20352;-46
2022/11/24 13:08:09;;;;;;;;;;;14.40;66.30;;;;;;5013281;28;19933;-46
2022/11/24 13:10:37;;;;;;;;;;;14.40;66.20;;;;;;5013419;28;19925;-49
2022/11/24 13:13:26;;;;;;;;;;;14.40;66.20;;;;;;5012141;28;19959;-46
2022/11/24 13:15:55;;;;;;;;;;;14.50;66.20;;;;;;5012777;28;19937;-49
2022/11/24 13:18:51;;;;;;;;;;;14.50;66.20;;;;;;5012671;28;20366;-46
2022/11/24 13:21:35;;;;;;;;;;;14.50;66.00;;;;;;5012432;28;19976;-46
2022/11/24 13:24:03;;;;;;;;;;;14.50;66.50;;;;;;5011928;28;20421;-48
2022/11/24 13:26:42;;;;;;;;;;;14.50;65.90;;;;;;5012626;28;20025;-47
2022/11/24 13:29:26;;;;;;;;;;;14.50;66.00;;;;;;5013219;28;19975;-47
2022/11/24 13:32:13;;;;;;;;;;;14.60;65.90;;;;;;5012095;28;19925;-46
2022/11/24 13:34:41;;;;;;;;;;;14.60;65.90;;;;;;4967356;28;19926;-47
2022/11/24 13:37:27;;;;;;;;;;;14.60;65.70;;;;;;5012571;28;20386;-47
2022/11/24 13:40:10;;;;;;;;;;;14.60;65.80;;;;;;5012674;28;20033;-46
2022/11/24 13:43:01;;;;;;;;;;;14.60;65.80;;;;;;5011816;28;19925;-46
2022/11/24 13:45:37;;;;;;;;;;;14.60;65.80;;;;;;5012391;28;19941;-48
2022/11/24 13:48:19;;;;;;;;;;;14.70;65.80;;;;;;5012749;28;19948;-49
2022/11/24 13:50:53;;;;;;;;;;;14.70;65.80;;;;;;5009886;28;20306;-48
2022/11/24 13:53:30;;;;;;;;;;;14.70;65.70;;;;;;5008970;28;19932;-46
2022/11/24 13:56:01;;;;;;;;;;;14.70;65.70;;;;;;5012250;28;20028;-47
2022/11/24 13:58:35;;;;;;;;;;;14.70;65.70;;;;;;5012743;28;19972;-47
2022/11/24 14:01:04;;;;;;;;;;;14.80;65.70;;;;;;5011017;28;20468;-49
2022/11/24 14:03:35;;;;;;;;;;;14.80;65.60;;;;;;5012207;28;19926;-46
2022/11/24 14:06:04;;;;;;;;;;;14.80;65.50;;;;;;5012203;28;20028;-47
2022/11/24 14:08:36;;;;;;;;;;;14.80;65.40;;;;;;5012571;28;20016;-47
2022/11/24 14:11:11;;;;;;;;;;;14.70;65.30;;;;;;5010989;28;20367;-47
2022/11/24 14:13:38;;;;;;;;;;;14.70;65.20;;;;;;5012011;28;19976;-46
2022/11/24 14:16:12;;;;;;;;;;;14.70;65.10;;;;;;5012170;28;19932;-50
2022/11/24 14:18:45;;;;;;;;;;;14.70;65.10;;;;;;5011244;28;20278;-50
2022/11/24 14:21:43;;;;;;;;;;;14.80;65.10;;;;;;5029402;23;20325;-47
2022/11/24 14:24:25;;;;;;;;;;;14.70;65.00;;;;;;5005843;28;19931;-48
2022/11/24 14:26:54;;;;;;;;;;;14.70;65.00;;;;;;5006639;28;19933;-47
2022/11/24 14:29:21;;;;;;;;;;;14.70;65.00;;;;;;5012089;28;19925;-47
2022/11/24 14:31:55;;;;;;;;;;;14.60;65.00;;;;;;5020800;28;20016;-47
2022/11/24 14:34:29;;;;;;;;;;;14.60;65.00;;;;;;5022820;28;19932;-48
2022/11/24 14:36:59;;;;;;;;;;;14.60;65.10;;;;;;5029532;28;19980;-47
2022/11/24 14:39:26;;;;;;;;;;;14.60;65.10;;;;;;5027219;28;20421;-52
2022/11/24 14:41:55;;;;;;;;;;;14.60;65.20;;;;;;5023117;28;19925;-52
2022/11/24 14:44:26;;;;;;;;;;;14.50;65.20;;;;;;5030602;28;20392;-49